Time;durP1;ratioP1;P1;durP2;ratioP2;P2;SDS_P1;SDS_P2;PMS_P1;PMS_P2;Temp;Humidity;BMP_temperature;BMP_pressure;BME280_temperature;BME280_humidity;BME280_pressure;Samples;Min_cycle;Max_cycle;Signal;HPM_P1;HPM_P2
2021/05/02 00:01:15;;;;;;;16.07;8.75;;;;;;;15.00;88.07;96902.79;1757648;82;21606;-74
2021/05/02 00:03:43;;;;;;;18.75;8.20;;;;;;;14.94;87.86;96893.86;1757647;82;21145;-74
2021/05/02 00:06:12;;;;;;;19.60;9.43;;;;;;;14.88;87.91;96888.94;1757660;82;21133;-74
2021/05/02 00:08:43;;;;;;;15.05;8.63;;;;;;;14.82;90.38;96892.01;1757542;82;21094;-74
2021/05/02 00:11:12;;;;;;;16.20;9.43;;;;;;;14.77;88.20;96888.29;1757538;81;21165;-74
2021/05/02 00:13:41;;;;;;;18.92;9.15;;;;;;;14.76;88.17;96879.91;1757555;82;21300;-74
2021/05/02 00:16:08;;;;;;;16.25;8.40;;;;;;;14.72;88.06;96871.23;1757704;81;21118;-74
2021/05/02 00:18:37;;;;;;;15.53;8.68;;;;;;;14.70;88.71;96870.95;1757642;82;21645;-74
2021/05/02 00:21:11;;;;;;;15.63;8.35;;;;;;;14.68;90.07;96864.84;1757343;80;21313;-74
2021/05/02 00:23:42;;;;;;;15.78;7.78;;;;;;;14.65;89.32;96867.23;1757855;82;21484;-74
2021/05/02 00:26:11;;;;;;;16.80;9.33;;;;;;;14.63;88.76;96854.48;1757638;82;21256;-75
2021/05/02 00:28:49;;;;;;;15.18;8.93;;;;;;;14.60;88.55;96858.21;1757495;81;21271;-75
2021/05/02 00:31:18;;;;;;;16.30;8.68;;;;;;;14.57;88.31;96857.56;1757844;82;21475;-74
2021/05/02 00:33:46;;;;;;;21.42;8.35;;;;;;;14.55;88.82;96846.13;1757639;82;21160;-75
2021/05/02 00:36:15;;;;;;;19.32;8.78;;;;;;;14.52;88.97;96841.38;1757337;82;21284;-75
2021/05/02 00:38:43;;;;;;;17.42;7.75;;;;;;;14.50;89.79;96839.27;1757618;81;21283;-75
2021/05/02 00:41:19;;;;;;;15.83;7.22;;;;;;;14.46;91.04;96837.78;1757368;81;21762;-75
2021/05/02 00:43:59;;;;;;;14.30;7.58;;;;;;;14.43;89.80;96828.64;1755999;82;21279;-75
2021/05/02 00:46:50;;;;;;;12.65;7.30;;;;;;;14.42;89.17;96822.94;1723328;83;21160;-74
2021/05/02 00:49:38;;;;;;;15.25;6.65;;;;;;;14.43;89.38;96831.30;1727550;82;21140;-75
2021/05/02 00:52:27;;;;;;;14.00;7.05;;;;;;;14.45;89.79;96832.05;1727813;83;21094;-75
2021/05/02 00:55:03;;;;;;;12.98;6.25;;;;;;;14.48;91.46;96829.66;1712466;83;21157;-75
2021/05/02 00:57:45;;;;;;;11.28;5.95;;;;;;;14.47;89.43;96835.95;1727512;83;21098;-74
2021/05/02 01:00:14;;;;;;;11.80;5.97;;;;;;;14.48;89.59;96834.52;1726633;83;21165;-74
2021/05/02 01:02:45;;;;;;;17.82;5.95;;;;;;;14.55;89.71;96837.66;1727437;83;21153;-74
2021/05/02 01:05:13;;;;;;;11.83;5.70;;;;;;;14.60;90.20;96834.22;1727537;83;21141;-74
2021/05/02 01:07:43;;;;;;;12.25;5.75;;;;;;;14.63;89.37;96845.16;1727497;83;21113;-74
2021/05/02 01:10:14;;;;;;;13.60;5.95;;;;;;;14.62;89.62;96840.29;1727412;83;21144;-74
2021/05/02 01:12:49;;;;;;;14.33;5.17;;;;;;;14.65;89.48;96843.23;1727538;82;21121;-75
2021/05/02 01:15:23;;;;;;;11.30;5.03;;;;;;;14.67;90.34;96843.14;1727215;83;21535;-74
2021/05/02 01:17:59;;;;;;;14.20;4.67;;;;;;;14.71;90.11;96844.66;1727515;83;21119;-74
2021/05/02 01:20:42;;;;;;;13.18;5.17;;;;;;;14.72;89.61;96837.03;1727531;83;21158;-75
2021/05/02 01:23:25;;;;;;;11.38;5.20;;;;;;;14.70;89.32;96829.13;1727286;82;21161;-75
2021/05/02 01:26:00;;;;;;;9.80;4.67;;;;;;;14.69;89.27;96825.25;1727774;83;21117;-76
2021/05/02 01:28:29;;;;;;;11.45;4.97;;;;;;;14.64;89.36;96829.06;1727642;83;21117;-75
2021/05/02 01:30:57;;;;;;;15.38;4.65;;;;;;;14.64;89.50;96821.53;1727436;83;21169;-76
2021/05/02 01:33:25;;;;;;;9.95;4.25;;;;;;;14.61;89.31;96818.59;1727544;83;21165;-75
2021/05/02 01:35:55;;;;;;;11.53;4.37;;;;;;;14.62;89.92;96819.45;1727445;83;21157;-75
2021/05/02 01:38:24;;;;;;;12.23;5.08;;;;;;;14.64;89.37;96813.53;1727433;83;21149;-75
2021/05/02 01:40:54;;;;;;;13.80;5.05;;;;;;;14.61;89.87;96807.92;1727653;83;21133;-75
2021/05/02 01:43:24;;;;;;;11.53;5.05;;;;;;;14.58;89.95;96805.45;1727579;83;21158;-75
2021/05/02 01:45:53;;;;;;;11.70;5.60;;;;;;;14.56;89.69;96794.50;1727433;83;21145;-75
2021/05/02 01:48:23;;;;;;;11.20;5.22;;;;;;;14.50;89.76;96787.28;1727554;83;21145;-75
2021/05/02 01:50:54;;;;;;;9.55;5.47;;;;;;;14.48;89.99;96785.67;1727757;83;21146;-76
2021/05/02 01:53:22;;;;;;;17.57;5.92;;;;;;;14.45;91.08;96783.23;1727458;83;21220;-76
2021/05/02 01:55:55;;;;;;;17.20;6.45;;;;;;;14.39;89.86;96780.47;1727528;83;21161;-76
2021/05/02 01:58:24;;;;;;;18.70;7.37;;;;;;;14.37;89.57;96783.73;1727673;83;21141;-75
2021/05/02 02:01:08;;;;;;;15.30;6.83;;;;;;;14.35;89.35;96782.48;1727457;83;21113;-75
2021/05/02 02:03:36;;;;;;;17.32;7.85;;;;;;;14.31;89.33;96770.77;1699441;83;21539;-75
2021/05/02 02:06:04;;;;;;;13.18;7.47;;;;;;;14.28;89.42;96769.66;1727670;83;21165;-85
2021/05/02 02:08:33;;;;;;;13.20;7.40;;;;;;;14.27;89.86;96770.13;1727468;83;21510;-86
2021/05/02 02:11:01;;;;;;;18.15;7.70;;;;;;;14.26;89.74;96771.08;1727587;83;21113;-85
2021/05/02 02:13:29;;;;;;;16.70;8.70;;;;;;;14.23;89.86;96764.61;1727354;83;21146;-85
2021/05/02 02:15:57;;;;;;;16.17;8.38;;;;;;;14.19;89.49;96764.42;1727523;83;21480;-85
2021/05/02 02:18:24;;;;;;;15.55;8.90;;;;;;;14.18;89.70;96768.91;1727525;83;21285;-85
2021/05/02 02:20:54;;;;;;;15.95;10.08;;;;;;;14.17;89.62;96775.20;1727424;83;21149;-85
2021/05/02 02:23:25;;;;;;;20.25;11.73;;;;;;;14.16;89.87;96770.80;1741618;82;21201;-85
2021/05/02 02:25:54;;;;;;;23.98;13.18;;;;;;;14.16;89.83;96776.63;1743692;82;21125;-76
2021/05/02 02:28:22;;;;;;;20.43;12.68;;;;;;;14.15;89.70;96773.59;1743613;82;21145;-76
2021/05/02 02:30:58;;;;;;;18.45;11.63;;;;;;;14.13;89.78;96771.86;1743634;82;21141;-75
2021/05/02 02:33:31;;;;;;;18.37;10.82;;;;;;;14.15;90.44;96767.77;1743759;82;21197;-76
2021/05/02 02:36:00;;;;;;;16.77;10.05;;;;;;;14.19;90.19;96764.42;1743958;82;21152;-76
2021/05/02 02:38:29;;;;;;;17.05;10.28;;;;;;;14.19;91.09;96762.63;1743792;82;21108;-76
2021/05/02 02:40:58;;;;;;;16.77;10.30;;;;;;;14.21;90.11;96763.38;1743664;82;21140;-76
2021/05/02 02:43:31;;;;;;;16.70;9.68;;;;;;;14.25;90.05;96757.39;1743884;82;21550;-76
2021/05/02 02:46:10;;;;;;;17.75;10.20;;;;;;;14.26;89.73;96759.09;1743996;82;21128;-76
2021/05/02 02:48:38;;;;;;;16.90;10.75;;;;;;;14.27;90.64;96764.80;1743763;82;21610;-75
2021/05/02 02:51:09;;;;;;;17.75;11.35;;;;;;;14.29;90.30;96770.03;1743786;82;21157;-75
2021/05/02 02:53:39;;;;;;;15.20;11.40;;;;;;;14.32;90.32;96772.02;1743798;82;21177;-75
2021/05/02 02:56:13;;;;;;;20.37;10.48;;;;;;;14.36;90.35;96756.67;1743714;82;21141;-76
2021/05/02 02:58:58;;;;;;;16.52;11.28;;;;;;;14.37;90.67;96756.58;1743978;82;21124;-75
2021/05/02 03:01:26;;;;;;;18.92;10.00;;;;;;;14.38;90.23;96762.28;1733937;82;21577;-75
2021/05/02 03:03:57;;;;;;;19.17;10.50;;;;;;;14.38;90.37;96756.11;1743862;82;21129;-76
2021/05/02 03:06:27;;;;;;;16.05;9.18;;;;;;;14.37;90.24;96749.91;1743798;82;21132;-75
2021/05/02 03:08:57;;;;;;;17.92;9.23;;;;;;;14.38;90.39;96752.11;1743652;82;21141;-76
2021/05/02 03:11:26;;;;;;;15.78;8.98;;;;;;;14.37;90.46;96751.74;1743807;82;21148;-76
2021/05/02 03:13:54;;;;;;;13.22;8.90;;;;;;;14.38;90.40;96752.11;1743755;82;21194;-75
2021/05/02 03:16:28;;;;;;;16.70;8.60;;;;;;;14.42;90.50;96751.43;1743718;82;21173;-76
2021/05/02 03:19:26;;;;;;;12.65;7.12;;;;;;;14.41;91.03;96752.39;1743245;82;21519;-75
2021/05/02 03:22:16;;;;;;;13.18;7.28;;;;;;;14.43;90.27;96750.47;1741194;82;21117;-75
2021/05/02 03:24:48;;;;;;;10.58;6.47;;;;;;;14.42;90.78;96753.63;1727675;83;21488;-73
2021/05/02 03:27:21;;;;;;;14.45;6.80;;;;;;;14.41;90.56;96765.22;1727586;83;21154;-85
2021/05/02 03:29:49;;;;;;;15.78;7.35;;;;;;;14.38;90.90;96758.28;1727516;83;21488;-85
2021/05/02 03:32:22;;;;;;;11.20;6.30;;;;;;;14.35;90.43;96761.63;1727567;83;21460;-85
2021/05/02 03:34:53;;;;;;;11.95;5.37;;;;;;;14.31;90.23;96769.44;1727543;83;21124;-85
2021/05/02 03:37:25;;;;;;;9.05;4.70;;;;;;;14.28;90.38;96761.17;1727596;82;21129;-85
2021/05/02 03:39:53;;;;;;;12.68;4.95;;;;;;;14.26;90.27;96771.08;1727584;83;21126;-85
2021/05/02 03:42:20;;;;;;;13.90;5.17;;;;;;;14.22;90.30;96768.23;1727716;83;21508;-84
2021/05/02 03:44:47;;;;;;;13.98;5.35;;;;;;;14.19;90.53;96769.28;1727436;83;21137;-84
2021/05/02 03:47:15;;;;;;;14.87;6.08;;;;;;;14.15;90.95;96773.59;1727528;83;21140;-85
2021/05/02 03:49:43;;;;;;;12.43;5.92;;;;;;;14.10;92.21;96769.41;1727556;83;21133;-85
2021/05/02 03:52:14;;;;;;;12.47;6.00;;;;;;;14.06;91.41;96769.69;1727385;83;21125;-85
2021/05/02 03:54:42;;;;;;;16.85;6.15;;;;;;;14.07;90.67;96770.92;1727654;82;21483;-84
2021/05/02 03:57:10;;;;;;;14.70;5.42;;;;;;;14.07;90.44;96767.42;1723145;83;21161;-75
2021/05/02 03:59:39;;;;;;;14.43;6.33;;;;;;;14.05;90.28;96768.84;1727433;83;21109;-75
2021/05/02 04:02:07;;;;;;;12.10;6.72;;;;;;;14.04;90.63;96767.11;1727663;83;21176;-75
2021/05/02 04:04:36;;;;;;;13.25;6.55;;;;;;;14.02;90.89;96769.50;1727492;83;21490;-75
2021/05/02 04:07:10;;;;;;;12.43;6.75;;;;;;;14.02;90.54;96768.16;1727578;82;21136;-75
2021/05/02 04:09:42;;;;;;;10.98;6.90;;;;;;;14.02;90.87;96758.38;1727537;83;21124;-75
2021/05/02 04:12:11;;;;;;;14.55;6.05;;;;;;;14.05;90.73;96765.31;1727513;83;21459;-75
2021/05/02 04:14:39;;;;;;;14.70;6.78;;;;;;;14.07;90.62;96765.59;1727604;83;21145;-75
2021/05/02 04:17:11;;;;;;;17.25;6.05;;;;;;;14.09;91.05;96766.84;1727509;83;21121;-76
2021/05/02 04:19:44;;;;;;;13.13;6.25;;;;;;;14.15;90.60;96767.77;1727514;83;21093;-75
2021/05/02 04:22:15;;;;;;;13.62;7.65;;;;;;;14.17;90.50;96771.20;1727070;83;21530;-75
2021/05/02 04:24:45;;;;;;;13.13;6.00;;;;;;;14.22;91.17;96761.58;1727684;83;21166;-74
2021/05/02 04:27:12;;;;;;;17.12;6.42;;;;;;;14.30;90.76;96754.41;1727506;83;21114;-74
2021/05/02 04:29:42;;;;;;;8.38;5.00;;;;;;;14.36;90.60;96746.02;1727918;83;21125;-75
2021/05/02 04:32:09;;;;;;;15.10;5.17;;;;;;;14.42;90.25;96744.30;1727519;82;21141;-75
2021/05/02 04:34:36;;;;;;;13.00;5.45;;;;;;;14.48;90.65;96750.55;1727360;83;21137;-74
2021/05/02 04:37:04;;;;;;;11.38;5.40;;;;;;;14.55;90.53;96748.81;1727960;83;21165;-75
2021/05/02 04:39:33;;;;;;;9.60;4.45;;;;;;;14.60;90.62;96746.23;1727437;83;21157;-75
2021/05/02 04:42:01;;;;;;;12.23;5.28;;;;;;;14.67;90.51;96745.81;1727624;83;21110;-75
2021/05/02 04:44:29;;;;;;;11.75;4.08;;;;;;;14.73;90.71;96730.27;1727692;83;21105;-75
2021/05/02 04:46:56;;;;;;;9.65;4.55;;;;;;;14.78;90.63;96740.17;1727379;83;21173;-75
2021/05/02 04:49:25;;;;;;;11.12;5.22;;;;;;;14.82;90.47;96742.15;1727524;83;21133;-75
2021/05/02 04:51:53;;;;;;;11.30;5.60;;;;;;;14.85;90.61;96745.09;1727569;83;21528;-75
2021/05/02 04:54:21;;;;;;;9.75;4.15;;;;;;;14.86;90.53;96749.48;1727442;83;21129;-76
2021/05/02 04:56:49;;;;;;;13.35;4.58;;;;;;;14.86;90.64;96742.82;1727476;83;21157;-75
2021/05/02 04:59:17;;;;;;;14.68;5.83;;;;;;;14.88;91.13;96748.89;1727468;83;21148;-75
2021/05/02 05:01:45;;;;;;;8.90;4.42;;;;;;;14.93;90.98;96751.23;1727552;83;21114;-76
2021/05/02 05:04:14;;;;;;;10.32;4.15;;;;;;;14.97;90.87;96744.27;1727578;83;21633;-75
2021/05/02 05:06:44;;;;;;;12.28;4.80;;;;;;;15.03;90.50;96745.69;1727565;83;21491;-75
2021/05/02 05:09:11;;;;;;;15.05;5.70;;;;;;;15.03;90.13;96730.51;1699652;83;21153;-75
2021/05/02 05:11:39;;;;;;;11.73;4.20;;;;;;;15.08;90.70;96737.35;1727507;83;21495;-75
2021/05/02 05:14:07;;;;;;;13.10;5.40;;;;;;;15.13;90.45;96744.56;1699499;83;21149;-75
2021/05/02 05:16:36;;;;;;;12.98;6.33;;;;;;;15.17;90.32;96747.40;1727124;83;21157;-75
2021/05/02 05:19:03;;;;;;;14.58;6.60;;;;;;;15.20;90.04;96743.16;1727564;83;21152;-75
2021/05/02 05:21:31;;;;;;;13.60;6.40;;;;;;;15.21;90.38;96742.23;1727484;83;21109;-75
2021/05/02 05:23:58;;;;;;;17.95;7.40;;;;;;;15.25;90.68;96749.54;1727537;82;21234;-75
2021/05/02 05:26:26;;;;;;;12.60;7.87;;;;;;;15.27;89.79;96750.27;1727422;83;21180;-75
2021/05/02 05:28:53;;;;;;;16.02;7.60;;;;;;;15.29;90.31;96743.88;1699318;83;21192;-74
2021/05/02 05:31:21;;;;;;;13.00;6.70;;;;;;;15.38;90.75;96738.39;1727579;83;21169;-75
2021/05/02 05:33:48;;;;;;;14.47;8.10;;;;;;;15.42;89.57;96742.56;1727606;83;21148;-75
2021/05/02 05:36:15;;;;;;;14.53;7.33;;;;;;;15.47;89.97;96727.55;1727395;83;21201;-75
2021/05/02 05:38:43;;;;;;;16.45;7.10;;;;;;;15.51;89.85;96732.18;1727525;83;21148;-84
2021/05/02 05:41:11;;;;;;;14.43;7.25;;;;;;;15.55;89.83;96747.03;1727506;82;21140;-84
2021/05/02 05:43:38;;;;;;;11.15;6.67;;;;;;;15.62;89.71;96735.44;1727466;83;21149;-84
2021/05/02 05:46:05;;;;;;;13.58;5.92;;;;;;;15.65;89.53;96730.73;1727490;83;21236;-83
2021/05/02 05:48:33;;;;;;;14.05;6.25;;;;;;;15.76;89.74;96734.45;1727459;83;21511;-84
2021/05/02 05:51:00;;;;;;;14.28;6.62;;;;;;;15.86;89.34;96736.00;1727453;83;21618;-83
2021/05/02 05:53:28;;;;;;;11.15;6.60;;;;;;;15.93;89.34;96727.47;1727569;83;21125;-83
2021/05/02 05:55:57;;;;;;;12.43;6.45;;;;;;;16.03;89.61;96729.48;1727524;83;21148;-84
2021/05/02 05:58:26;;;;;;;15.10;6.00;;;;;;;16.13;89.20;96734.53;1727469;83;21142;-84
2021/05/02 06:00:54;;;;;;;20.23;7.83;;;;;;;16.22;88.85;96732.52;1727561;83;21133;-84
2021/05/02 06:03:22;;;;;;;14.07;6.67;;;;;;;16.33;88.89;96724.20;1723160;83;21521;-84
2021/05/02 06:05:50;;;;;;;16.65;6.35;;;;;;;16.35;88.11;96729.80;1727316;83;21141;-83
2021/05/02 06:08:17;;;;;;;18.82;6.65;;;;;;;16.40;88.68;96730.78;1727564;83;21138;-84
2021/05/02 06:10:47;;;;;;;14.43;6.42;;;;;;;16.40;88.04;96732.12;1727388;83;21145;-84
2021/05/02 06:13:18;;;;;;;11.75;6.60;;;;;;;16.39;88.36;96725.07;1727638;83;21486;-84
2021/05/02 06:15:46;;;;;;;11.48;6.17;;;;;;;16.41;88.68;96724.97;1727434;83;21160;-84
2021/05/02 06:18:15;;;;;;;11.80;6.35;;;;;;;16.46;88.64;96729.02;1727060;83;21451;-84
2021/05/02 06:20:42;;;;;;;17.37;6.62;;;;;;;16.48;88.46;96719.52;1727524;83;21145;-84
2021/05/02 06:23:10;;;;;;;18.05;6.28;;;;;;;16.53;88.28;96722.70;1732417;82;21164;-84
2021/05/02 06:25:37;;;;;;;13.75;5.92;;;;;;;16.60;88.67;96724.44;1743471;82;21168;-84
2021/05/02 06:28:05;;;;;;;9.63;5.35;;;;;;;16.71;88.43;96722.30;1743739;82;21172;-84
2021/05/02 06:30:32;;;;;;;12.78;6.62;;;;;;;16.82;86.29;96722.84;1743920;82;21463;-84
2021/05/02 06:33:01;;;;;;;13.10;5.90;;;;;;;16.95;87.89;96728.98;1743618;82;21140;-84
2021/05/02 06:35:29;;;;;;;12.03;5.10;;;;;;;17.09;87.74;96736.45;1743587;82;21145;-85
2021/05/02 06:37:57;;;;;;;14.20;5.97;;;;;;;17.22;87.92;96742.57;1743697;82;21148;-84
2021/05/02 06:40:24;;;;;;;12.23;6.25;;;;;;;17.33;87.26;96739.55;1743658;82;21140;-84
2021/05/02 06:42:52;;;;;;;15.63;6.83;;;;;;;17.48;87.45;96741.03;1743609;82;21140;-84
2021/05/02 06:45:19;;;;;;;13.28;6.10;;;;;;;17.59;87.13;96736.17;1744178;82;21148;-84
2021/05/02 06:47:47;;;;;;;14.60;7.35;;;;;;;17.73;86.07;96737.75;1745943;82;21247;-75
2021/05/02 06:50:14;;;;;;;14.98;7.08;;;;;;;17.84;86.27;96730.21;1743739;82;21152;-74
2021/05/02 06:52:43;;;;;;;12.15;7.90;;;;;;;17.90;85.04;96729.72;1743690;82;21144;-75
2021/05/02 06:55:11;;;;;;;11.50;7.17;;;;;;;17.99;85.76;96733.51;1743591;82;21502;-75
2021/05/02 06:57:39;;;;;;;13.18;7.58;;;;;;;18.11;85.71;96739.74;1743767;82;21219;-75
2021/05/02 07:00:07;;;;;;;13.70;7.47;;;;;;;18.12;85.36;96740.10;1743478;82;21199;-74
2021/05/02 07:02:35;;;;;;;14.63;7.92;;;;;;;18.16;85.08;96740.70;1743924;82;21145;-75
2021/05/02 07:05:03;;;;;;;17.07;9.00;;;;;;;18.18;82.42;96738.25;1743778;82;21148;-75
2021/05/02 07:07:31;;;;;;;26.05;12.45;;;;;;;18.28;84.32;96738.85;1718818;82;21157;-75
2021/05/02 07:09:59;;;;;;;12.35;7.92;;;;;;;18.30;83.69;96733.73;1743693;82;21163;-75
2021/05/02 07:12:26;;;;;;;16.23;6.80;;;;;;;18.36;82.83;96727.50;1743723;82;21176;-75
2021/05/02 07:14:55;;;;;;;15.55;6.30;;;;;;;18.41;82.34;96732.86;1743585;82;21148;-75
2021/05/02 07:17:22;;;;;;;12.00;5.97;;;;;;;18.49;83.11;96734.91;1743591;82;21483;-75
2021/05/02 07:19:51;;;;;;;14.45;5.92;;;;;;;18.54;82.29;96727.33;1743881;82;21147;-75
2021/05/02 07:22:19;;;;;;;12.05;5.95;;;;;;;18.61;76.45;96731.70;1743686;82;21105;-75
2021/05/02 07:24:50;;;;;;;13.22;6.30;;;;;;;18.69;80.38;96739.94;1745478;82;21325;-74
2021/05/02 07:27:18;;;;;;;12.37;5.62;;;;;;;18.72;80.92;96734.34;1747103;82;21148;-75
2021/05/02 07:29:45;;;;;;;14.30;6.50;;;;;;;18.74;79.79;96726.16;1744597;82;21130;-75
2021/05/02 07:32:13;;;;;;;17.10;6.70;;;;;;;18.74;80.06;96731.53;1744026;82;21109;-75
2021/05/02 07:34:41;;;;;;;10.63;5.37;;;;;;;18.78;80.12;96733.45;1743879;82;21530;-76
2021/05/02 07:37:11;;;;;;;10.82;5.42;;;;;;;18.81;79.24;96744.78;1743573;82;21170;-76
2021/05/02 07:39:41;;;;;;;12.53;4.78;;;;;;;18.87;78.27;96743.42;1746722;82;21223;-75
2021/05/02 07:42:08;;;;;;;9.48;4.20;;;;;;;18.91;77.20;96734.62;1746871;82;21247;-75
2021/05/02 07:44:36;;;;;;;7.33;2.60;;;;;;;19.00;74.39;96737.39;1747080;81;21129;-73
2021/05/02 07:47:04;;;;;;;9.20;2.02;;;;;;;19.16;69.55;96739.28;1746781;81;21244;-74
2021/05/02 07:49:32;;;;;;;9.05;2.08;;;;;;;19.47;62.69;96742.88;1746965;82;21263;-73
2021/05/02 07:52:00;;;;;;;6.47;2.20;;;;;;;19.86;59.05;96740.04;1746610;82;21286;-76
2021/05/02 07:54:28;;;;;;;7.72;2.60;;;;;;;20.02;58.19;96741.75;1746260;82;21259;-74
2021/05/02 07:56:56;;;;;;;8.20;2.00;;;;;;;20.22;57.58;96745.02;1746745;82;21283;-75
2021/05/02 07:59:23;;;;;;;5.85;2.25;;;;;;;20.36;57.90;96728.97;1746562;82;21267;-75
2021/05/02 08:01:51;;;;;;;6.62;1.90;;;;;;;20.53;54.92;96736.38;1744067;82;21507;-74
2021/05/02 08:04:18;;;;;;;3.85;1.80;;;;;;;20.71;53.36;96741.92;1743879;82;21148;-75
2021/05/02 08:06:47;;;;;;;4.72;1.85;;;;;;;20.89;54.07;96743.92;1743827;82;21180;-75
2021/05/02 08:09:14;;;;;;;4.75;1.70;;;;;;;20.99;52.82;96750.67;1743886;82;21515;-75
2021/05/02 08:11:43;;;;;;;4.33;1.40;;;;;;;21.05;50.64;96771.65;1744033;82;21144;-75
2021/05/02 08:14:10;;;;;;;9.20;1.87;;;;;;;21.12;52.02;96748.20;1743943;82;21157;-75
2021/05/02 08:16:40;;;;;;;5.10;1.60;;;;;;;21.13;51.43;96756.12;1718491;82;21172;-76
2021/05/02 08:19:07;;;;;;;10.72;2.27;;;;;;;21.18;52.57;96754.36;1743641;82;21136;-74
2021/05/02 08:21:34;;;;;;;10.40;1.60;;;;;;;21.23;51.13;96761.00;1743993;82;21526;-75
2021/05/02 08:24:02;;;;;;;8.65;1.87;;;;;;;21.35;50.72;96752.78;1736478;81;21129;-75
2021/05/02 08:26:29;;;;;;;7.85;1.77;;;;;;;21.47;52.67;96750.26;1727545;83;21495;-75
2021/05/02 08:28:57;;;;;;;6.22;1.50;;;;;;;21.40;49.57;96749.16;1730681;83;21177;-83
2021/05/02 08:31:27;;;;;;;10.78;1.80;;;;;;;21.33;51.40;96752.92;1728794;83;21140;-83
2021/05/02 08:33:54;;;;;;;8.45;1.70;;;;;;;21.32;51.22;96750.36;1728219;83;21476;-84
2021/05/02 08:36:21;;;;;;;8.55;1.67;;;;;;;21.33;50.96;96744.84;1728593;83;21168;-84
2021/05/02 08:38:49;;;;;;;8.05;2.02;;;;;;;21.35;50.88;96738.80;1728052;83;21177;-85
2021/05/02 08:41:17;;;;;;;11.00;2.02;;;;;;;21.44;51.08;96732.19;1728050;83;21518;-84
2021/05/02 08:43:54;;;;;;;7.65;1.70;;;;;;;21.52;51.31;96735.02;1728059;83;21149;-85
2021/05/02 08:46:22;;;;;;;10.00;1.80;;;;;;;21.60;51.78;96737.81;1727936;83;21121;-85
2021/05/02 08:48:50;;;;;;;8.25;2.40;;;;;;;21.74;50.37;96729.80;1727766;83;21113;-76
2021/05/02 08:51:18;;;;;;;9.20;1.50;;;;;;;21.92;49.85;96734.41;1727498;83;21164;-75
2021/05/02 08:53:45;;;;;;;9.15;1.80;;;;;;;22.12;49.34;96731.13;1727477;83;21495;-76
2021/05/02 08:56:13;;;;;;;6.60;1.80;;;;;;;22.34;48.77;96729.53;1727662;83;21157;-75
2021/05/02 08:58:40;;;;;;;12.00;2.10;;;;;;;22.40;48.25;96740.58;1727496;83;21133;-75
2021/05/02 09:01:08;;;;;;;10.60;1.90;;;;;;;22.29;47.01;96729.97;1727350;83;21177;-75
2021/05/02 09:03:43;;;;;;;10.60;1.75;;;;;;;22.36;47.89;96728.38;1727596;83;21503;-75
2021/05/02 09:06:19;;;;;;;9.58;2.15;;;;;;;22.26;46.89;96732.47;1727389;83;21098;-75
2021/05/02 09:08:52;;;;;;;9.48;1.92;;;;;;;22.25;47.29;96741.56;1727512;83;21113;-75
2021/05/02 09:11:42;;;;;;;12.75;2.12;;;;;;;22.36;48.73;96736.48;1727590;83;21141;-75
2021/05/02 09:14:13;;;;;;;11.12;2.50;;;;;;;22.45;47.88;96725.78;1727359;83;21142;-75
2021/05/02 09:16:54;;;;;;;11.38;1.72;;;;;;;22.50;47.11;96723.47;1725687;83;21164;-75
2021/05/02 09:22:15;;;;;;;10.58;2.05;;;;;;;22.88;46.56;96738.22;1781284;79;23094;-74
2021/05/02 09:25:01;;;;;;;12.28;1.72;;;;;;;22.99;45.70;96733.06;1754694;82;21277;-75
2021/05/02 09:27:29;;;;;;;7.10;1.55;;;;;;;23.02;46.10;96726.01;1754645;81;21158;-75
2021/05/02 09:30:19;;;;;;;7.60;1.62;;;;;;;23.12;46.61;96719.19;1754835;82;21135;-75
2021/05/02 09:32:49;;;;;;;10.32;1.75;;;;;;;23.04;45.22;96727.55;1754752;82;21128;-74
2021/05/02 09:35:28;;;;;;;8.80;1.70;;;;;;;22.94;45.66;96732.19;1754511;82;21638;-75
2021/05/02 09:38:15;;;;;;;4.90;1.40;;;;;;;22.85;46.24;96744.78;1754852;82;21075;-75
2021/05/02 09:40:52;;;;;;;9.90;1.85;;;;;;;22.89;47.06;96750.23;1754737;82;21127;-75
2021/05/02 09:43:46;;;;;;;9.63;1.80;;;;;;;22.82;46.37;96746.42;1754606;82;21508;-75
2021/05/02 09:46:33;;;;;;;8.35;2.10;;;;;;;22.78;46.23;96754.00;1754655;81;21249;-74
2021/05/02 09:49:13;;;;;;;10.53;1.62;;;;;;;22.62;45.33;96753.31;1754592;81;21135;-75
2021/05/02 09:51:52;;;;;;;8.08;1.80;;;;;;;22.49;46.74;96741.51;1754688;82;21257;-75
2021/05/02 09:54:26;;;;;;;7.33;1.47;;;;;;;22.44;47.32;96751.05;1754668;82;21269;-74
2021/05/02 09:56:55;;;;;;;11.60;2.83;;;;;;;22.33;48.32;96745.38;1754534;81;21261;-75
2021/05/02 09:59:31;;;;;;;10.48;1.25;;;;;;;22.27;48.52;96757.62;1754667;82;21269;-75
2021/05/02 10:02:16;;;;;;;6.00;1.55;;;;;;;22.45;48.74;96754.13;1754833;81;21135;-75
2021/05/02 10:04:50;;;;;;;9.15;1.92;;;;;;;22.37;48.39;96752.15;1754763;82;21607;-75
2021/05/02 10:07:25;;;;;;;12.03;2.08;;;;;;;22.49;48.79;96753.66;1754859;82;21174;-75
2021/05/02 10:09:55;;;;;;;8.70;1.30;;;;;;;22.51;47.25;96758.39;1754553;82;21134;-75
2021/05/02 10:12:22;;;;;;;7.03;1.35;;;;;;;22.24;46.05;96743.92;1754635;82;21269;-75
2021/05/02 10:14:51;;;;;;;10.63;1.35;;;;;;;22.36;47.34;96732.91;1754652;81;21254;-75
2021/05/02 10:17:19;;;;;;;10.78;1.50;;;;;;;22.38;46.85;96736.33;1754586;82;21277;-75
2021/05/02 10:19:47;;;;;;;11.40;2.55;;;;;;;22.45;47.57;96726.61;1754786;81;21099;-75
2021/05/02 10:22:17;;;;;;;10.63;2.33;;;;;;;22.55;46.39;96742.80;1755402;81;21533;-75
2021/05/02 10:24:45;;;;;;;11.28;2.87;;;;;;;22.62;45.38;96726.84;1755399;81;21127;-75
2021/05/02 10:27:13;;;;;;;9.10;1.52;;;;;;;22.79;44.83;96727.81;1755514;82;21153;-75
2021/05/02 10:29:42;;;;;;;11.78;1.60;;;;;;;23.03;45.81;96731.27;1755487;82;21135;-75
2021/05/02 10:32:13;;;;;;;9.75;1.90;;;;;;;23.23;45.52;96744.59;1727667;82;21139;-75
2021/05/02 10:34:50;;;;;;;8.70;1.50;;;;;;;23.20;44.06;96741.70;1754881;82;21144;-75
2021/05/02 10:37:28;;;;;;;8.10;1.55;;;;;;;23.24;45.31;96748.99;1754800;81;21273;-75
2021/05/02 10:40:05;;;;;;;10.75;1.40;;;;;;;23.17;44.56;96759.58;1754988;81;21088;-75
2021/05/02 10:42:54;;;;;;;8.10;1.70;;;;;;;23.00;44.46;96765.86;1754914;82;21107;-75
2021/05/02 10:45:33;;;;;;;9.65;1.62;;;;;;;22.97;44.83;96759.40;1754847;82;21473;-75
2021/05/02 10:48:09;;;;;;;12.65;1.77;;;;;;;22.72;45.03;96760.51;1754884;81;21220;-75
2021/05/02 10:50:43;;;;;;;13.40;2.33;;;;;;;22.75;45.98;96756.99;1751497;82;21493;-75
2021/05/02 10:53:26;;;;;;;9.00;1.80;;;;;;;22.62;45.16;96768.17;1754916;81;21462;-75
2021/05/02 10:56:08;;;;;;;11.33;1.30;;;;;;;22.51;45.20;96777.81;1727947;82;21119;-76
2021/05/02 10:58:38;;;;;;;14.78;2.72;;;;;;;22.35;44.76;96782.50;1754824;82;21114;-75
2021/05/02 11:01:26;;;;;;;13.22;1.98;;;;;;;22.33;46.56;96793.44;1755057;81;21446;-76
2021/05/02 11:03:54;;;;;;;13.45;1.65;;;;;;;22.18;46.92;96789.05;1754880;82;21122;-74
2021/05/02 11:06:48;;;;;;;12.70;1.70;;;;;;;22.11;47.29;96799.59;1754802;82;21496;-74
2021/05/02 11:09:16;;;;;;;8.23;1.72;;;;;;;21.81;46.96;96821.76;1755016;82;21111;-76
2021/05/02 11:11:49;;;;;;;5.85;1.37;;;;;;;21.64;48.40;96838.14;1754851;81;21130;-75
2021/05/02 11:14:22;;;;;;;12.18;1.98;;;;;;;21.39;53.89;96849.88;1754771;82;21608;-75
2021/05/02 11:16:58;;;;;;;12.95;1.60;;;;;;;20.67;55.38;96852.21;1755184;82;21112;-75
2021/05/02 11:19:35;;;;;;;12.80;1.80;;;;;;;19.89;59.60;96861.60;1727080;82;21119;-75
2021/05/02 11:22:11;;;;;;;26.50;10.98;;;;;;;19.34;62.44;96865.32;1744199;81;21116;-74
2021/05/02 11:24:46;;;;;;;8.73;1.67;;;;;;;19.07;63.01;96866.65;1740814;82;21116;-76
2021/05/02 11:27:22;;;;;;;6.72;1.50;;;;;;;18.87;63.79;96864.22;1740884;82;21123;-75
2021/05/02 11:32:36;;;;;;;6.92;1.60;;;;;;;18.62;67.13;96858.64;1741125;82;21122;-75
2021/05/02 11:35:11;;;;;;;10.82;2.12;;;;;;;18.58;68.16;96854.89;1740684;82;21482;-75
2021/05/02 11:37:54;;;;;;;6.65;1.60;;;;;;;18.62;67.84;96844.75;1741010;82;21427;-75
2021/05/02 11:40:27;;;;;;;6.22;1.90;;;;;;;18.77;68.14;96843.14;1740868;82;21152;-75
2021/05/02 11:43:05;;;;;;;7.70;1.30;;;;;;;18.95;66.85;96832.23;1740840;82;21154;-75
2021/05/02 11:45:53;;;;;;;9.05;1.77;;;;;;;19.16;65.52;96826.09;1740816;82;21112;-75
2021/05/02 11:48:28;;;;;;;9.43;1.82;;;;;;;19.46;65.62;96824.95;1740732;82;21112;-75
2021/05/02 11:51:00;;;;;;;5.62;1.37;;;;;;;19.84;64.79;96814.10;1740825;82;21427;-75